WetterOnline ( https://www.wetteronline.ch )

Wetter aktuell Greifswald

Aktuelles Wetter: Greifswald (6m)

6-stündlich | Neueste Meldungen
Ortszeit Temperatur Wetter
Di, 12.11. 13:00 6.5° C fast wolkenlos
Di, 12.11. 7:00 2.0° C wolkig
Di, 12.11. 1:00 2.5° C wolkig
Mo, 11.11. 19:00 3.0° C leicht bewölkt
Mo, 11.11. 13:00 4.9° C bewölkt
Mo, 11.11. 7:00 3.1° C bedeckt
Mo, 11.11. 1:00 3.5° C bedeckt
So, 10.11. 19:00 4.3° C wolkenlos
Ortszeit Temperatur Wetter
Di, 12.11. 16:00 5.5° C leicht bewölkt
Di, 12.11. 15:50 5.5° C wolkenlos
Di, 12.11. 15:40 5.8° C wolkenlos
Di, 12.11. 15:30 6.2° C leicht bewölkt
Di, 12.11. 15:20 6.2° C wolkenlos
Di, 12.11. 15:10 6.4° C wolkenlos
Di, 12.11. 15:00 6.7° C leicht bewölkt
Di, 12.11. 14:30 7.0° C fast wolkenlos
Di, 12.11. 14:00 7.0° C fast wolkenlos
Di, 12.11. 13:30 6.7° C wolkenlos
Di, 12.11. 13:00 6.5° C fast wolkenlos
Ortszeit Relative Feuchte Sichtweite
Di, 12.11. 13:00 73% 25 km
Di, 12.11. 7:00 88% 12 km
Di, 12.11. 1:00 89% 13 km
Mo, 11.11. 19:00 91% 14 km
Mo, 11.11. 13:00 86% 9 km
Mo, 11.11. 7:00 95% 5.0 km
Mo, 11.11. 1:00 99% 3.8 km
So, 10.11. 19:00 93% 10 km
Ortszeit Relative Feuchte Sichtweite
Di, 12.11. 16:00 80% 25 km
Di, 12.11. 15:50 80% -
Di, 12.11. 15:40 79% -
Di, 12.11. 15:30 77% 30 km
Di, 12.11. 15:20 77% -
Di, 12.11. 15:10 77% -
Di, 12.11. 15:00 73% 28 km
Di, 12.11. 14:30 72% 30 km
Di, 12.11. 14:00 71% 30 km
Di, 12.11. 13:30 73% 24 km
Di, 12.11. 13:00 73% 25 km
Ortszeit Niederschlagsmenge Niederschlagsart
Di, 12.11. 13:00 0.1 l/m2 in 6 Std. Regen
Di, 12.11. 7:00 0.0 l/m2 in 12 Std. -
Di, 12.11. 1:00 0.0 l/m2 in 6 Std. -
Mo, 11.11. 19:00 0.0 l/m2 in 12 Std. -
Mo, 11.11. 13:00 0.0 l/m2 in 6 Std. -
Mo, 11.11. 7:00 0.0 l/m2 in 12 Std. -
Mo, 11.11. 1:00 0.0 l/m2 in 6 Std. Nebel
So, 10.11. 19:00 0.0 l/m2 in 12 Std. -
Ortszeit Niederschlagsmenge Niederschlagsart
Di, 12.11. 16:00 0.0 l/m2 in 1 Std. -
Di, 12.11. 15:50 keine Meldung -
Di, 12.11. 15:40 keine Meldung -
Di, 12.11. 15:30 0.0 l/m2 in 1 Std. -
Di, 12.11. 15:20 keine Meldung -
Di, 12.11. 15:10 keine Meldung -
Di, 12.11. 15:00 0.0 l/m2 in 1 Std. -
Di, 12.11. 14:30 0.0 l/m2 in 1 Std. -
Di, 12.11. 14:00 0.0 l/m2 in 1 Std. -
Di, 12.11. 13:30 0.0 l/m2 in 1 Std. -
Di, 12.11. 13:00 0.0 l/m2 in 1 Std. Regen
Ortszeit Stärke Spitze Richtung
km/h Bft. km/h Grad Sektor
Di, 12.11. 13:00 14 3 29 170° S
Di, 12.11. 7:00 9 2 26 170° S
Di, 12.11. 1:00 13 3 31 150° SO
Mo, 11.11. 19:00 11 2 32 150° SO
Mo, 11.11. 13:00 14 3 32 160° S
Mo, 11.11. 7:00 11 2 25 180° S
Mo, 11.11. 1:00 11 2 22 200° S
So, 10.11. 19:00 9 2 15 200° S
Ortszeit Stärke Spitze Richtung
km/h Bft. km/h Grad Sektor
Di, 12.11. 16:00 11 2 29 160° S
Di, 12.11. 15:50 11 2 - 160° S
Di, 12.11. 15:40 13 3 - 160° S
Di, 12.11. 15:30 11 2 29 160° S
Di, 12.11. 15:20 11 2 - 160° S
Di, 12.11. 15:10 14 3 - 150° SO
Di, 12.11. 15:00 14 3 25 160° S
Di, 12.11. 14:30 13 3 26 160° S
Di, 12.11. 14:00 11 2 24 180° S
Di, 12.11. 13:30 13 3 24 170° S
Di, 12.11. 13:00 14 3 29 170° S
Ortszeit Untergrenze Bedeckung Gattung
total tief tief mittel hoch
Di, 12.11. 13:00 4500 m 1/8 1/8 - Ac -
Di, 12.11. 7:00 3000 m 7/8 7/8 - As -
Di, 12.11. 1:00 3900 m 8/8 8/8 - As -
Mo, 11.11. 19:00 10500 m 3/8 0/8 - - Ci
Mo, 11.11. 13:00 240 m 7/8 7/8 Cu - -
Mo, 11.11. 7:00 90 m 8/8 8/8 St - -
Mo, 11.11. 1:00 90 m 8/8 8/8 St - -
So, 10.11. 19:00 - 0/8 0/8 - - -
Ortszeit Bedeckungsgrad in Achtel und Wolkenuntergrenze
Di, 12.11. 16:00 1(1500m)
Di, 12.11. 15:50 keine Wolken
Di, 12.11. 15:40 keine Wolken
Di, 12.11. 15:30 2(6000m)
Di, 12.11. 15:20 keine Wolken
Di, 12.11. 15:10 keine Wolken
Di, 12.11. 15:00 2(6000m)
Di, 12.11. 14:30 1(6000m)
Di, 12.11. 14:00 1(6000m)
Di, 12.11. 13:30 1(6000m)
Di, 12.11. 13:00 1(4500m)
Ortszeit Luftdruck NN (hPa) Tendenz (hPa in 3 Std.)
Di, 12.11. 13:00 1005 - 0,3
Di, 12.11. 7:00 1005 - 0,3
Di, 12.11. 1:00 1005 - 1,3
Mo, 11.11. 19:00 1008 - 0,7
Mo, 11.11. 13:00 1011 - 1,4
Mo, 11.11. 7:00 1014 - 0,6
Mo, 11.11. 1:00 1015 - 0,6
So, 10.11. 19:00 1015 + 0,8
Ortszeit Luftdruck NN (hPa) Tendenz (hPa in 3 Std.)
Di, 12.11. 16:00 1005 + 0,2
Di, 12.11. 15:50 1005 keine Meldung
Di, 12.11. 15:40 1005 keine Meldung
Di, 12.11. 15:30 1005 - 0,2
Di, 12.11. 15:20 1005 keine Meldung
Di, 12.11. 15:10 1005 keine Meldung
Di, 12.11. 15:00 1005 - 0,6
Di, 12.11. 14:30 1004 - 1,2
Di, 12.11. 14:00 1005 - 0,9
Di, 12.11. 13:30 1005 - 0,4
Di, 12.11. 13:00 1005 - 0,3
Ortszeit Schneehöhe (cm)
Di, 12.11. 13:00 0
Di, 12.11. 7:00 0
Di, 12.11. 1:00 0
Mo, 11.11. 19:00 0
Mo, 11.11. 13:00 0
Mo, 11.11. 7:00 0
Mo, 11.11. 1:00 0
So, 10.11. 19:00 0
Ortszeit Schneehöhe (cm)
Di, 12.11. 16:00 0
Di, 12.11. 15:50 0
Di, 12.11. 15:40 0
Di, 12.11. 15:30 0
Di, 12.11. 15:20 0
Di, 12.11. 15:10 0
Di, 12.11. 15:00 0
Di, 12.11. 14:30 0
Di, 12.11. 14:00 0
Di, 12.11. 13:30 0
Di, 12.11. 13:00 0
Link zu dieser Seite / Seite empfehlen

Das Wetter in ...